createdAt,value
2022-11-30T00:00:10.417Z,98468.19
2022-11-30T00:03:13.453Z,98465.03
2022-11-30T00:06:23.020Z,98463.44
2022-11-30T00:09:25.992Z,98464.47
2022-11-30T00:12:29.853Z,98469.31
2022-11-30T00:15:33.161Z,98458.81
2022-11-30T00:18:36.580Z,98463.09
2022-11-30T00:21:40.784Z,98453.53
2022-11-30T00:24:43.880Z,98450.88
2022-11-30T00:27:46.870Z,98454.84
2022-11-30T00:30:58.773Z,98459.38
2022-11-30T00:34:01.836Z,98452.66
2022-11-30T00:37:06.049Z,98454.53
2022-11-30T00:40:09.729Z,98448.97
2022-11-30T00:43:12.574Z,98442.56
2022-11-30T00:46:15.559Z,98450.00
2022-11-30T00:49:18.594Z,98457.28
2022-11-30T00:52:22.812Z,98457.53
2022-11-30T00:55:26.006Z,98456.97
2022-11-30T00:58:28.821Z,98459.63
2022-11-30T01:01:32.165Z,98461.50
2022-11-30T01:04:35.069Z,98460.34
2022-11-30T01:07:39.446Z,98450.75
2022-11-30T01:10:44.396Z,98459.28
2022-11-30T01:13:47.365Z,98458.25
2022-11-30T01:16:56.079Z,98456.31
2022-11-30T01:19:59.350Z,98456.31
2022-11-30T01:23:03.682Z,98462.22
2022-11-30T01:26:07.004Z,98463.03
2022-11-30T01:29:09.713Z,98464.63
2022-11-30T01:32:12.512Z,98467.53
2022-11-30T01:35:15.500Z,98466.41
2022-11-30T01:38:19.960Z,98474.00
2022-11-30T01:41:25.284Z,98470.22
2022-11-30T01:44:50.888Z,98475.25
2022-11-30T01:47:57.873Z,98485.09
2022-11-30T01:51:01.206Z,98475.50
2022-11-30T01:54:09.738Z,98478.72
2022-11-30T01:57:18.203Z,98475.25
2022-11-30T02:00:22.021Z,98476.13
2022-11-30T02:03:33.759Z,98469.91
2022-11-30T02:06:36.870Z,98473.38
2022-11-30T02:09:44.337Z,98484.88
2022-11-30T02:13:06.661Z,98477.66
2022-11-30T02:16:20.365Z,98487.59
2022-11-30T02:19:58.643Z,98485.97
2022-11-30T02:23:25.884Z,98481.69
2022-11-30T02:26:55.932Z,98479.84
2022-11-30T02:30:05.539Z,98483.56
2022-11-30T02:33:12.862Z,98473.28
2022-11-30T02:36:16.083Z,98479.94
2022-11-30T02:39:21.328Z,98479.94
2022-11-30T02:42:24.196Z,98483.66
2022-11-30T02:45:39.507Z,98484.47
2022-11-30T02:48:47.770Z,98480.50
2022-11-30T02:51:53.084Z,98479.44
2022-11-30T02:55:00.864Z,98484.53
2022-11-30T02:58:03.841Z,98487.53
2022-11-30T03:01:08.259Z,98488.25
2022-11-30T03:04:11.154Z,98473.53
2022-11-30T03:07:14.073Z,98486.31
2022-11-30T03:10:17.063Z,98482.06
2022-11-30T03:13:19.875Z,98481.81
2022-11-30T03:16:24.251Z,98484.72
2022-11-30T03:19:27.211Z,98488.50
2022-11-30T03:22:30.182Z,98490.94
2022-11-30T03:25:33.322Z,98492.63
2022-11-30T03:28:36.687Z,98500.63
2022-11-30T03:31:40.973Z,98503.13
2022-11-30T03:34:43.814Z,98497.56
2022-11-30T03:37:48.121Z,98502.63
2022-11-30T03:41:00.917Z,98502.97
2022-11-30T03:44:03.777Z,98506.22
2022-11-30T03:47:08.631Z,98501.59
2022-11-30T03:50:12.127Z,98492.78
2022-11-30T03:53:14.968Z,98499.50
2022-11-30T03:56:17.991Z,98497.31
2022-11-30T03:59:20.773Z,98496.25
2022-11-30T04:02:25.059Z,98502.63
2022-11-30T04:05:27.800Z,98500.88
2022-11-30T04:08:31.662Z,98501.97
2022-11-30T04:11:35.871Z,98501.09
2022-11-30T04:14:38.673Z,98497.88
2022-11-30T04:17:43.181Z,98504.59
2022-11-30T04:20:46.627Z,98501.09
2022-11-30T04:23:49.696Z,98501.19
2022-11-30T04:26:59.901Z,98500.06
2022-11-30T04:30:02.780Z,98499.28
2022-11-30T04:33:07.199Z,98502.97
2022-11-30T04:36:18.754Z,98499.28
2022-11-30T04:39:21.746Z,98496.81
2022-11-30T04:42:24.625Z,98502.97
2022-11-30T04:45:30.093Z,98502.25
2022-11-30T04:48:38.359Z,98503.38
2022-11-30T04:51:41.231Z,98502.81
2022-11-30T04:54:44.241Z,98505.41
2022-11-30T04:57:47.184Z,98505.41
2022-11-30T05:00:50.042Z,98506.22
2022-11-30T05:03:54.337Z,98499.59
2022-11-30T05:06:57.319Z,98499.09
2022-11-30T05:10:00.341Z,98501.03
2022-11-30T05:13:03.093Z,98507.34
2022-11-30T05:16:06.491Z,98507.84
2022-11-30T05:19:10.676Z,98509.13
2022-11-30T05:22:13.456Z,98510.16
2022-11-30T05:25:16.346Z,98512.50
2022-11-30T05:28:19.180Z,98504.25
2022-11-30T05:31:22.266Z,98513.56
2022-11-30T05:34:26.686Z,98515.41
2022-11-30T05:37:29.761Z,98517.69
2022-11-30T05:40:33.834Z,98523.50
2022-11-30T05:43:37.488Z,98522.22
2022-11-30T05:46:41.280Z,98528.59
2022-11-30T05:49:45.587Z,98524.63
2022-11-30T05:52:53.821Z,98519.78
2022-11-30T05:55:56.774Z,98519.53
2022-11-30T05:58:59.600Z,98532.63
2022-11-30T06:02:02.593Z,98525.69
2022-11-30T06:05:08.764Z,98531.59
2022-11-30T06:08:14.322Z,98521.75
2022-11-30T06:11:18.316Z,98522.53
2022-11-30T06:14:21.302Z,98520.91
2022-11-30T06:17:24.237Z,98522.78
2022-11-30T06:20:28.583Z,98524.72
2022-11-30T06:23:32.645Z,98521.25
2022-11-30T06:26:35.495Z,98523.66
2022-11-30T06:29:40.183Z,98523.19
2022-11-30T06:32:46.297Z,98526.41
2022-11-30T06:35:50.460Z,98512.53
2022-11-30T06:38:53.237Z,98521.16
2022-11-30T06:41:55.973Z,98519.22
2022-11-30T06:44:58.627Z,98524.31
2022-11-30T06:48:01.303Z,98524.47
2022-11-30T06:51:07.716Z,98530.94
2022-11-30T06:54:10.480Z,98521.88
2022-11-30T06:57:13.384Z,98525.59
2022-11-30T07:00:17.232Z,98529.88
2022-11-30T07:03:19.899Z,98530.38
2022-11-30T07:06:24.478Z,98531.66
2022-11-30T07:09:28.171Z,98532.47
2022-11-30T07:12:30.866Z,98535.47
2022-11-30T07:15:33.563Z,98533.84
2022-11-30T07:18:36.372Z,98536.28
2022-11-30T07:21:40.362Z,98533.44
2022-11-30T07:25:00.780Z,98533.19
2022-11-30T07:28:03.418Z,98540.97
2022-11-30T07:31:17.386Z,98539.00
2022-11-30T07:34:20.515Z,98546.78
2022-11-30T07:37:24.603Z,98542.56
2022-11-30T07:40:27.297Z,98549.53
2022-11-30T07:43:30.027Z,98542.09
2022-11-30T07:46:33.498Z,98543.13
2022-11-30T07:49:36.340Z,98546.03
2022-11-30T07:52:40.389Z,98554.03
2022-11-30T07:55:43.405Z,98546.59
2022-11-30T07:58:46.919Z,98548.00
2022-11-30T08:01:49.658Z,98556.56
2022-11-30T08:04:52.610Z,98560.81
2022-11-30T08:07:56.798Z,98560.81
2022-11-30T08:11:00.597Z,98563.44
2022-11-30T08:14:04.028Z,98564.47
2022-11-30T08:17:06.813Z,98572.47
2022-11-30T08:20:11.638Z,98572.00
2022-11-30T08:23:15.700Z,98574.91
2022-11-30T08:26:20.837Z,98566.66
2022-11-30T08:29:23.449Z,98572.88
2022-11-30T08:32:26.148Z,98573.19
2022-11-30T08:35:28.871Z,98579.41
2022-11-30T08:38:32.914Z,98577.00
2022-11-30T08:41:36.736Z,98577.56
2022-11-30T08:44:39.376Z,98573.75
2022-11-30T08:47:42.225Z,98573.09
2022-11-30T08:50:44.877Z,98580.34
2022-11-30T08:53:49.947Z,98579.00
2022-11-30T08:56:53.301Z,98586.09
2022-11-30T08:59:55.957Z,98581.66
2022-11-30T09:02:58.664Z,98583.22
2022-11-30T09:06:06.657Z,98591.44
2022-11-30T09:09:10.793Z,98592.66
2022-11-30T09:12:13.432Z,98596.72
2022-11-30T09:15:16.130Z,98593.53
2022-11-30T09:18:18.824Z,98606.56
2022-11-30T09:21:23.547Z,98601.91
2022-11-30T09:24:27.623Z,98607.59
2022-11-30T09:27:32.965Z,98599.75
2022-11-30T09:30:35.752Z,98602.06
2022-11-30T09:33:38.584Z,98595.31
2022-11-30T09:36:41.344Z,98600.72
2022-11-30T09:39:45.383Z,98600.16
2022-11-30T09:42:58.625Z,98602.75
2022-11-30T09:46:05.805Z,98604.47
2022-11-30T09:49:20.400Z,98603.44
2022-11-30T09:52:29.709Z,98605.84
2022-11-30T09:55:39.883Z,98602.31
2022-11-30T09:58:48.967Z,98594.81
2022-11-30T10:01:56.591Z,98594.81
2022-11-30T10:05:00.276Z,98596.16
2022-11-30T10:08:20.558Z,98594.59
2022-11-30T10:11:42.280Z,98595.16
2022-11-30T10:15:09.793Z,98589.09
2022-11-30T10:18:22.505Z,98590.28
2022-11-30T10:21:38.912Z,98592.78
2022-11-30T10:24:57.984Z,98589.13
2022-11-30T10:28:38.708Z,98586.25
2022-11-30T10:31:36.985Z,98596.47
2022-11-30T10:34:43.374Z,98594.34
2022-11-30T10:37:48.040Z,98589.00
2022-11-30T10:40:56.670Z,98595.13
2022-11-30T10:44:06.385Z,98592.97
2022-11-30T10:47:15.337Z,98590.31
2022-11-30T10:50:18.772Z,98585.09
2022-11-30T10:53:21.558Z,98587.38
2022-11-30T10:56:24.245Z,98581.38
2022-11-30T10:59:41.609Z,98577.75
2022-11-30T11:02:46.231Z,98583.78
2022-11-30T11:05:49.000Z,98581.38
2022-11-30T11:08:52.397Z,98576.13
2022-11-30T11:11:56.460Z,98572.94
2022-11-30T11:15:11.589Z,98582.88
2022-11-30T11:18:23.718Z,98582.19
2022-11-30T11:21:26.533Z,98581.25
2022-11-30T11:24:29.791Z,98572.16
2022-11-30T11:27:37.474Z,98573.28
2022-11-30T11:30:44.344Z,98581.84
2022-11-30T11:33:55.109Z,98585.78
2022-11-30T11:37:07.412Z,98582.75
2022-11-30T11:40:16.437Z,98583.50
2022-11-30T11:43:19.824Z,98577.69
2022-11-30T11:46:23.996Z,98580.56
2022-11-30T11:49:29.025Z,98578.22
2022-11-30T11:52:31.720Z,98577.75
2022-11-30T11:55:36.342Z,98584.97
2022-11-30T11:58:45.151Z,98583.72
2022-11-30T12:02:00.329Z,98581.34
2022-11-30T12:05:10.470Z,98582.47
2022-11-30T12:08:24.596Z,98566.25
2022-11-30T12:11:33.202Z,98569.47
2022-11-30T12:14:36.837Z,98577.13
2022-11-30T12:17:57.484Z,98574.44
2022-11-30T12:21:06.163Z,98578.66
2022-11-30T12:24:37.095Z,98575.13
2022-11-30T12:27:53.613Z,98579.91
2022-11-30T12:31:12.183Z,98575.69
2022-11-30T12:34:24.177Z,98579.13
2022-11-30T12:37:43.014Z,98570.56
2022-11-30T12:41:01.100Z,98566.63
2022-11-30T12:44:35.512Z,98574.00
2022-11-30T12:47:54.724Z,98567.78
2022-11-30T12:51:12.965Z,98564.53
2022-11-30T12:54:23.780Z,98564.75
2022-11-30T12:57:35.831Z,98570.31
2022-11-30T13:00:49.130Z,98567.09
2022-11-30T13:04:02.262Z,98561.50
2022-11-30T13:07:13.878Z,98569.84
2022-11-30T13:10:28.177Z,98567.09
2022-11-30T13:13:36.670Z,98570.00
2022-11-30T13:16:43.540Z,98567.53
2022-11-30T13:19:55.890Z,98573.34
2022-11-30T13:23:07.503Z,98574.16
2022-11-30T13:26:23.081Z,98561.84
2022-11-30T13:29:48.076Z,98580.25
2022-11-30T13:32:59.290Z,98569.50
2022-11-30T13:36:06.056Z,98575.66
2022-11-30T13:39:25.255Z,98572.78
2022-11-30T13:42:40.201Z,98581.31
2022-11-30T13:45:44.471Z,98575.16
2022-11-30T13:48:49.564Z,98575.16
2022-11-30T13:52:20.911Z,98568.22
2022-11-30T13:55:52.229Z,98569.56
2022-11-30T13:59:32.892Z,98571.59
2022-11-30T14:02:54.777Z,98571.31
2022-11-30T14:05:59.641Z,98571.59
2022-11-30T14:09:03.547Z,98572.44
2022-11-30T14:12:40.532Z,98575.16
2022-11-30T14:15:56.472Z,98571.91
2022-11-30T14:19:02.460Z,98569.97
2022-11-30T14:22:11.951Z,98570.75
2022-11-30T14:25:18.812Z,98587.06
2022-11-30T14:28:26.677Z,98571.59
2022-11-30T14:31:35.598Z,98577.25
2022-11-30T14:34:45.293Z,98576.44
2022-11-30T14:37:56.268Z,98578.56
2022-11-30T14:41:00.729Z,98590.78
2022-11-30T14:44:08.048Z,98583.53
2022-11-30T14:47:15.896Z,98581.22
2022-11-30T14:50:25.303Z,98587.06
2022-11-30T14:53:40.959Z,98584.91
2022-11-30T14:56:49.917Z,98583.28
2022-11-30T14:59:55.941Z,98577.88
2022-11-30T15:02:59.752Z,98577.53
2022-11-30T15:06:07.177Z,98581.00
2022-11-30T15:09:17.698Z,98576.75
2022-11-30T15:12:24.018Z,98578.91
2022-11-30T15:15:31.499Z,98579.88
2022-11-30T15:18:35.143Z,98580.19
2022-11-30T15:21:46.789Z,98578.34
2022-11-30T15:24:50.668Z,98583.13
2022-11-30T15:27:54.540Z,98576.66
2022-11-30T15:31:01.686Z,98577.97
2022-11-30T15:34:05.867Z,98577.88
2022-11-30T15:37:11.671Z,98586.63
2022-11-30T15:40:17.681Z,98584.19
2022-11-30T15:43:25.228Z,98580.72
2022-11-30T15:46:34.757Z,98587.09
2022-11-30T15:49:38.855Z,98589.78
2022-11-30T15:52:45.729Z,98595.69
2022-11-30T15:55:50.885Z,98593.50
2022-11-30T15:59:05.853Z,98594.28
2022-11-30T16:02:28.144Z,98592.53
2022-11-30T16:05:32.019Z,98607.63
2022-11-30T16:08:36.923Z,98599.88
2022-11-30T16:11:40.509Z,98601.06
2022-11-30T16:14:44.316Z,98609.09
2022-11-30T16:17:48.245Z,98610.88
2022-11-30T16:20:55.278Z,98618.16
2022-11-30T16:24:01.114Z,98614.66
2022-11-30T16:27:17.342Z,98605.38
2022-11-30T16:30:23.487Z,98615.00
2022-11-30T16:33:27.748Z,98611.03
2022-11-30T16:36:33.764Z,98621.00
2022-11-30T16:39:38.588Z,98610.63
2022-11-30T16:42:42.716Z,98617.34
2022-11-30T16:45:47.098Z,98615.47
2022-11-30T16:48:50.839Z,98619.19
2022-11-30T16:51:54.688Z,98617.34
2022-11-30T16:54:59.421Z,98618.94
2022-11-30T16:58:03.216Z,98626.97
2022-11-30T17:01:07.958Z,98621.63
2022-11-30T17:04:16.501Z,98628.81
2022-11-30T17:07:20.181Z,98619.19
2022-11-30T17:10:25.899Z,98627.47
2022-11-30T17:13:29.587Z,98627.78
2022-11-30T17:16:33.813Z,98634.41
2022-11-30T17:19:38.309Z,98632.69
2022-11-30T17:22:44.134Z,98631.16
2022-11-30T17:25:49.571Z,98638.38
2022-11-30T17:28:53.356Z,98636.50
2022-11-30T17:31:57.037Z,98634.91
2022-11-30T17:35:01.627Z,98638.84
2022-11-30T17:38:05.242Z,98650.59
2022-11-30T17:41:17.206Z,98648.66
2022-11-30T17:44:22.597Z,98641.69
2022-11-30T17:47:26.626Z,98647.75
2022-11-30T17:50:30.746Z,98649.53
2022-11-30T17:53:35.174Z,98644.53
2022-11-30T17:56:41.074Z,98656.03
2022-11-30T17:59:45.288Z,98652.53
2022-11-30T18:02:52.474Z,98644.34
2022-11-30T18:06:01.999Z,98659.31
2022-11-30T18:09:05.496Z,98654.31
2022-11-30T18:12:11.618Z,98651.47
2022-11-30T18:15:16.567Z,98654.53
2022-11-30T18:18:20.362Z,98652.34
2022-11-30T18:21:25.879Z,98662.53
2022-11-30T18:24:29.385Z,98658.97
2022-11-30T18:27:34.671Z,98668.00
2022-11-30T18:30:38.924Z,98664.63
2022-11-30T18:33:42.360Z,98672.06
2022-11-30T18:36:46.204Z,98676.81
2022-11-30T18:39:50.701Z,98673.91
2022-11-30T18:42:56.982Z,98685.66
2022-11-30T18:46:05.775Z,98688.31
2022-11-30T18:49:11.406Z,98674.97
2022-11-30T18:52:16.563Z,98687.50
2022-11-30T18:55:23.116Z,98685.47
2022-11-30T18:58:31.397Z,98682.09
2022-11-30T19:01:37.095Z,98687.41
2022-11-30T19:04:41.644Z,98688.63
2022-11-30T19:07:49.281Z,98687.59
2022-11-30T19:10:54.145Z,98691.94
2022-11-30T19:14:01.849Z,98698.31
2022-11-30T19:17:06.536Z,98693.34
2022-11-30T19:20:12.465Z,98693.91
2022-11-30T19:23:19.851Z,98697.88
2022-11-30T19:26:24.336Z,98698.69
2022-11-30T19:29:30.534Z,98700.19
2022-11-30T19:32:35.663Z,98705.78
2022-11-30T19:35:41.167Z,98703.44
2022-11-30T19:38:47.145Z,98710.72
2022-11-30T19:41:51.875Z,98707.22
2022-11-30T19:44:59.776Z,98711.56
2022-11-30T19:48:04.956Z,98710.41
2022-11-30T19:51:16.364Z,98711.91
2022-11-30T19:54:22.962Z,98713.19
2022-11-30T19:57:28.120Z,98715.41
2022-11-30T20:00:34.849Z,98704.34
2022-11-30T20:03:40.243Z,98706.84
2022-11-30T20:06:44.948Z,98716.44
2022-11-30T20:09:49.795Z,98721.66
2022-11-30T20:12:54.180Z,98726.44
2022-11-30T20:16:00.425Z,98715.78
2022-11-30T20:19:05.101Z,98715.78
2022-11-30T20:22:09.864Z,98720.78
2022-11-30T20:25:14.828Z,98723.44
2022-11-30T20:28:20.524Z,98729.22
2022-11-30T20:31:27.409Z,98732.22
2022-11-30T20:34:34.752Z,98730.50
2022-11-30T20:37:41.379Z,98731.78
2022-11-30T20:40:48.856Z,98737.56
2022-11-30T20:43:53.968Z,98738.63
2022-11-30T20:46:59.981Z,98740.72
2022-11-30T20:50:05.139Z,98735.97
2022-11-30T20:53:09.889Z,98738.50
2022-11-30T20:56:15.484Z,98737.00
2022-11-30T20:59:22.084Z,98743.63
2022-11-30T21:02:26.407Z,98745.47
2022-11-30T21:05:29.388Z,98739.22
2022-11-30T21:08:32.340Z,98740.59
2022-11-30T21:11:36.812Z,98746.13
2022-11-30T21:14:39.601Z,98743.94
2022-11-30T21:17:43.875Z,98744.75
2022-11-30T21:20:46.519Z,98749.47
2022-11-30T21:23:50.555Z,98748.69
2022-11-30T21:26:53.250Z,98745.22
2022-11-30T21:29:56.034Z,98746.03
2022-11-30T21:33:00.676Z,98746.13
2022-11-30T21:36:06.043Z,98745.91
2022-11-30T21:39:09.966Z,98743.56
2022-11-30T21:42:12.655Z,98753.19
2022-11-30T21:45:15.612Z,98754.22
2022-11-30T21:48:20.360Z,98746.72
2022-11-30T21:51:25.277Z,98741.72
2022-11-30T21:54:28.214Z,98744.41
2022-11-30T21:57:30.916Z,98735.81
2022-11-30T22:00:33.616Z,98738.97
2022-11-30T22:03:37.833Z,98730.97
2022-11-30T22:06:42.201Z,98735.13
2022-11-30T22:09:45.057Z,98737.56
2022-11-30T22:12:47.901Z,98745.44
2022-11-30T22:15:50.610Z,98742.06
2022-11-30T22:18:56.522Z,98755.03
2022-11-30T22:21:59.195Z,98758.25
2022-11-30T22:25:01.853Z,98752.56
2022-11-30T22:28:04.742Z,98757.06
2022-11-30T22:31:09.417Z,98751.97
2022-11-30T22:34:13.921Z,98753.59
2022-11-30T22:37:16.645Z,98753.81
2022-11-30T22:40:19.471Z,98747.34
2022-11-30T22:43:22.146Z,98751.28
2022-11-30T22:46:26.405Z,98749.06
2022-11-30T22:49:30.579Z,98744.78
2022-11-30T22:53:01.387Z,98750.69
2022-11-30T22:55:56.105Z,98750.22
2022-11-30T22:59:00.515Z,98750.38
2022-11-30T23:02:03.243Z,98745.50
2022-11-30T23:05:07.960Z,98745.50
2022-11-30T23:08:10.775Z,98747.25
2022-11-30T23:11:15.690Z,98750.38
2022-11-30T23:14:18.789Z,98751.41
2022-11-30T23:17:21.463Z,98753.13
2022-11-30T23:20:25.552Z,98746.16
2022-11-30T23:23:28.254Z,98758.22
2022-11-30T23:26:33.104Z,98748.72
2022-11-30T23:29:37.093Z,98749.78
2022-11-30T23:32:39.828Z,98746.88
2022-11-30T23:35:45.206Z,98744.78
2022-11-30T23:38:49.608Z,98743.16
2022-11-30T23:41:52.248Z,98748.94
2022-11-30T23:45:01.152Z,98744.66
2022-11-30T23:48:03.941Z,98738.66
2022-11-30T23:51:08.540Z,98732.41
2022-11-30T23:54:11.278Z,98737.13
2022-11-30T23:57:13.974Z,98737.13
